sensor_id;sensor_type;location;lat;lon;timestamp;temperature;humidity
63047;DHT22;62025;39.238;9.126;2023-08-17T00:00:33;26.70;70.10
63047;DHT22;62025;39.238;9.126;2023-08-17T00:02:59;26.70;70.00
63047;DHT22;62025;39.238;9.126;2023-08-17T00:05:25;26.70;70.00
63047;DHT22;62025;39.238;9.126;2023-08-17T00:07:52;26.60;69.80
63047;DHT22;62025;39.238;9.126;2023-08-17T00:10:19;26.70;69.70
63047;DHT22;62025;39.238;9.126;2023-08-17T00:12:45;26.70;70.00
63047;DHT22;62025;39.238;9.126;2023-08-17T00:15:11;26.70;70.20
63047;DHT22;62025;39.238;9.126;2023-08-17T00:17:37;26.70;70.50
63047;DHT22;62025;39.238;9.126;2023-08-17T00:20:03;26.60;70.40
63047;DHT22;62025;39.238;9.126;2023-08-17T00:22:30;26.70;70.50
63047;DHT22;62025;39.238;9.126;2023-08-17T00:24:56;26.70;70.80
63047;DHT22;62025;39.238;9.126;2023-08-17T00:27:22;26.70;70.90
63047;DHT22;62025;39.238;9.126;2023-08-17T00:29:48;26.80;70.90
63047;DHT22;62025;39.238;9.126;2023-08-17T00:32:14;26.80;70.10
63047;DHT22;62025;39.238;9.126;2023-08-17T00:34:40;26.70;70.10
63047;DHT22;62025;39.238;9.126;2023-08-17T00:37:06;26.70;70.20
63047;DHT22;62025;39.238;9.126;2023-08-17T00:39:33;26.70;70.10
63047;DHT22;62025;39.238;9.126;2023-08-17T00:41:59;26.60;70.30
63047;DHT22;62025;39.238;9.126;2023-08-17T00:44:25;26.60;70.50
63047;DHT22;62025;39.238;9.126;2023-08-17T00:46:51;26.60;70.50
63047;DHT22;62025;39.238;9.126;2023-08-17T00:49:18;26.60;70.60
63047;DHT22;62025;39.238;9.126;2023-08-17T00:51:44;26.60;70.60
63047;DHT22;62025;39.238;9.126;2023-08-17T00:54:10;26.60;70.80
63047;DHT22;62025;39.238;9.126;2023-08-17T00:56:36;26.60;70.60
63047;DHT22;62025;39.238;9.126;2023-08-17T00:59:03;26.60;70.40
63047;DHT22;62025;39.238;9.126;2023-08-17T01:01:29;26.60;70.10
63047;DHT22;62025;39.238;9.126;2023-08-17T01:03:56;26.60;70.10
63047;DHT22;62025;39.238;9.126;2023-08-17T01:06:21;26.60;70.40
63047;DHT22;62025;39.238;9.126;2023-08-17T01:08:48;26.60;70.20
63047;DHT22;62025;39.238;9.126;2023-08-17T01:11:22;26.70;70.30
63047;DHT22;62025;39.238;9.126;2023-08-17T01:16:52;26.70;70.30
63047;DHT22;62025;39.238;9.126;2023-08-17T01:19:27;26.70;70.40
63047;DHT22;62025;39.238;9.126;2023-08-17T01:22:05;26.70;70.50
63047;DHT22;62025;39.238;9.126;2023-08-17T01:24:31;26.70;70.40
63047;DHT22;62025;39.238;9.126;2023-08-17T01:26:57;26.60;70.60
63047;DHT22;62025;39.238;9.126;2023-08-17T01:29:23;26.60;70.80
63047;DHT22;62025;39.238;9.126;2023-08-17T01:34:29;26.60;71.40
63047;DHT22;62025;39.238;9.126;2023-08-17T01:37:04;26.60;71.70
63047;DHT22;62025;39.238;9.126;2023-08-17T01:39:42;26.60;71.90
63047;DHT22;62025;39.238;9.126;2023-08-17T01:42:11;26.60;72.50
63047;DHT22;62025;39.238;9.126;2023-08-17T01:44:38;26.60;72.90
63047;DHT22;62025;39.238;9.126;2023-08-17T01:47:05;26.60;73.50
63047;DHT22;62025;39.238;9.126;2023-08-17T01:49:31;26.60;74.00
63047;DHT22;62025;39.238;9.126;2023-08-17T01:51:58;26.60;74.40
63047;DHT22;62025;39.238;9.126;2023-08-17T01:54:24;26.60;74.60
63047;DHT22;62025;39.238;9.126;2023-08-17T01:56:50;26.60;74.60
63047;DHT22;62025;39.238;9.126;2023-08-17T01:59:17;26.60;74.70
63047;DHT22;62025;39.238;9.126;2023-08-17T02:01:43;26.60;74.70
63047;DHT22;62025;39.238;9.126;2023-08-17T02:04:09;26.60;74.60
63047;DHT22;62025;39.238;9.126;2023-08-17T02:06:36;26.60;74.50
63047;DHT22;62025;39.238;9.126;2023-08-17T02:09:02;26.60;74.40
63047;DHT22;62025;39.238;9.126;2023-08-17T02:11:28;26.70;74.30
63047;DHT22;62025;39.238;9.126;2023-08-17T02:13:54;26.70;73.00
63047;DHT22;62025;39.238;9.126;2023-08-17T02:16:20;26.60;71.40
63047;DHT22;62025;39.238;9.126;2023-08-17T02:18:46;26.50;69.60
63047;DHT22;62025;39.238;9.126;2023-08-17T02:21:12;26.40;69.00
63047;DHT22;62025;39.238;9.126;2023-08-17T02:23:39;26.40;68.50
63047;DHT22;62025;39.238;9.126;2023-08-17T02:26:05;26.40;68.10
63047;DHT22;62025;39.238;9.126;2023-08-17T02:28:31;26.40;68.10
63047;DHT22;62025;39.238;9.126;2023-08-17T02:30:58;26.40;68.20
63047;DHT22;62025;39.238;9.126;2023-08-17T02:33:27;26.30;68.30
63047;DHT22;62025;39.238;9.126;2023-08-17T02:35:53;26.30;68.40
63047;DHT22;62025;39.238;9.126;2023-08-17T02:38:19;26.30;68.60
63047;DHT22;62025;39.238;9.126;2023-08-17T02:40:45;26.30;68.70
63047;DHT22;62025;39.238;9.126;2023-08-17T02:43:11;26.30;68.80
63047;DHT22;62025;39.238;9.126;2023-08-17T02:45:37;26.20;68.90
63047;DHT22;62025;39.238;9.126;2023-08-17T02:48:03;26.20;69.20
63047;DHT22;62025;39.238;9.126;2023-08-17T02:50:30;26.20;69.10
63047;DHT22;62025;39.238;9.126;2023-08-17T02:52:56;26.20;69.20
63047;DHT22;62025;39.238;9.126;2023-08-17T02:55:22;26.20;69.30
63047;DHT22;62025;39.238;9.126;2023-08-17T02:57:48;26.10;69.40
63047;DHT22;62025;39.238;9.126;2023-08-17T03:00:14;26.10;69.50
63047;DHT22;62025;39.238;9.126;2023-08-17T03:02:40;26.10;69.60
63047;DHT22;62025;39.238;9.126;2023-08-17T03:05:06;26.10;69.70
63047;DHT22;62025;39.238;9.126;2023-08-17T03:07:32;26.20;69.80
63047;DHT22;62025;39.238;9.126;2023-08-17T03:09:58;26.10;69.90
63047;DHT22;62025;39.238;9.126;2023-08-17T03:12:24;26.20;70.00
63047;DHT22;62025;39.238;9.126;2023-08-17T03:14:50;26.20;70.40
63047;DHT22;62025;39.238;9.126;2023-08-17T03:17:16;26.20;70.50
63047;DHT22;62025;39.238;9.126;2023-08-17T03:19:42;26.20;70.40
63047;DHT22;62025;39.238;9.126;2023-08-17T03:22:08;26.20;70.40
63047;DHT22;62025;39.238;9.126;2023-08-17T03:24:35;26.20;70.30
63047;DHT22;62025;39.238;9.126;2023-08-17T03:27:01;26.30;70.00
63047;DHT22;62025;39.238;9.126;2023-08-17T03:29:27;26.20;69.90
63047;DHT22;62025;39.238;9.126;2023-08-17T03:31:53;26.20;70.00
63047;DHT22;62025;39.238;9.126;2023-08-17T03:34:19;26.20;69.90
63047;DHT22;62025;39.238;9.126;2023-08-17T03:36:45;26.20;70.00
63047;DHT22;62025;39.238;9.126;2023-08-17T03:39:11;26.10;70.10
63047;DHT22;62025;39.238;9.126;2023-08-17T03:41:38;26.10;70.10
63047;DHT22;62025;39.238;9.126;2023-08-17T03:44:05;26.10;70.10
63047;DHT22;62025;39.238;9.126;2023-08-17T03:46:32;26.00;70.40
63047;DHT22;62025;39.238;9.126;2023-08-17T03:48:58;26.10;70.50
63047;DHT22;62025;39.238;9.126;2023-08-17T03:51:24;26.10;70.70
63047;DHT22;62025;39.238;9.126;2023-08-17T03:53:50;26.10;71.10
63047;DHT22;62025;39.238;9.126;2023-08-17T03:56:18;26.10;71.20
63047;DHT22;62025;39.238;9.126;2023-08-17T03:58:44;26.10;71.40
63047;DHT22;62025;39.238;9.126;2023-08-17T04:01:11;26.10;71.50
63047;DHT22;62025;39.238;9.126;2023-08-17T04:03:41;26.10;71.70
63047;DHT22;62025;39.238;9.126;2023-08-17T04:06:08;26.10;72.00
63047;DHT22;62025;39.238;9.126;2023-08-17T04:08:36;26.10;72.30
63047;DHT22;62025;39.238;9.126;2023-08-17T04:11:03;26.10;72.50
63047;DHT22;62025;39.238;9.126;2023-08-17T04:13:30;26.00;72.80
63047;DHT22;62025;39.238;9.126;2023-08-17T04:15:57;26.00;73.10
63047;DHT22;62025;39.238;9.126;2023-08-17T04:18:23;26.00;73.50
63047;DHT22;62025;39.238;9.126;2023-08-17T04:20:50;26.00;73.70
63047;DHT22;62025;39.238;9.126;2023-08-17T04:23:16;26.00;73.90
63047;DHT22;62025;39.238;9.126;2023-08-17T04:25:43;26.00;73.90
63047;DHT22;62025;39.238;9.126;2023-08-17T04:28:10;26.00;74.10
63047;DHT22;62025;39.238;9.126;2023-08-17T04:30:37;26.00;74.40
63047;DHT22;62025;39.238;9.126;2023-08-17T04:33:04;26.00;74.40
63047;DHT22;62025;39.238;9.126;2023-08-17T04:35:30;26.00;74.70
63047;DHT22;62025;39.238;9.126;2023-08-17T04:37:56;25.90;74.90
63047;DHT22;62025;39.238;9.126;2023-08-17T04:40:22;26.00;74.80
63047;DHT22;62025;39.238;9.126;2023-08-17T04:42:49;25.90;74.90
63047;DHT22;62025;39.238;9.126;2023-08-17T04:45:15;25.90;74.50
63047;DHT22;62025;39.238;9.126;2023-08-17T04:47:44;25.70;73.90
63047;DHT22;62025;39.238;9.126;2023-08-17T04:50:11;25.60;72.80
63047;DHT22;62025;39.238;9.126;2023-08-17T04:52:43;25.60;72.00
63047;DHT22;62025;39.238;9.126;2023-08-17T04:55:10;25.60;70.90
63047;DHT22;62025;39.238;9.126;2023-08-17T04:57:36;25.60;70.20
63047;DHT22;62025;39.238;9.126;2023-08-17T05:00:03;25.50;70.10
63047;DHT22;62025;39.238;9.126;2023-08-17T05:02:33;25.60;69.70
63047;DHT22;62025;39.238;9.126;2023-08-17T05:05:02;25.50;69.40
63047;DHT22;62025;39.238;9.126;2023-08-17T05:07:29;25.50;69.00
63047;DHT22;62025;39.238;9.126;2023-08-17T05:09:55;25.40;69.40
63047;DHT22;62025;39.238;9.126;2023-08-17T05:12:21;25.40;69.60
63047;DHT22;62025;39.238;9.126;2023-08-17T05:14:47;25.40;70.10
63047;DHT22;62025;39.238;9.126;2023-08-17T05:17:13;25.40;70.20
63047;DHT22;62025;39.238;9.126;2023-08-17T05:19:39;25.50;69.00
63047;DHT22;62025;39.238;9.126;2023-08-17T05:22:11;25.50;67.90
63047;DHT22;62025;39.238;9.126;2023-08-17T05:24:38;25.50;67.20
63047;DHT22;62025;39.238;9.126;2023-08-17T05:27:06;25.60;67.10
63047;DHT22;62025;39.238;9.126;2023-08-17T05:29:33;25.60;67.00
63047;DHT22;62025;39.238;9.126;2023-08-17T05:31:59;25.70;66.80
63047;DHT22;62025;39.238;9.126;2023-08-17T05:34:26;25.70;66.80
63047;DHT22;62025;39.238;9.126;2023-08-17T05:36:53;25.80;66.50
63047;DHT22;62025;39.238;9.126;2023-08-17T05:39:19;25.90;65.90
63047;DHT22;62025;39.238;9.126;2023-08-17T05:41:45;25.90;65.30
63047;DHT22;62025;39.238;9.126;2023-08-17T05:44:11;25.90;65.20
63047;DHT22;62025;39.238;9.126;2023-08-17T05:46:39;26.00;63.30
63047;DHT22;62025;39.238;9.126;2023-08-17T05:49:07;26.00;63.10
63047;DHT22;62025;39.238;9.126;2023-08-17T05:51:33;26.00;62.10
63047;DHT22;62025;39.238;9.126;2023-08-17T05:53:58;26.00;61.50
63047;DHT22;62025;39.238;9.126;2023-08-17T05:56:24;26.00;61.20
63047;DHT22;62025;39.238;9.126;2023-08-17T05:58:50;26.00;60.50
63047;DHT22;62025;39.238;9.126;2023-08-17T06:01:16;26.10;61.80
63047;DHT22;62025;39.238;9.126;2023-08-17T06:03:42;26.30;62.70
63047;DHT22;62025;39.238;9.126;2023-08-17T06:06:09;26.40;63.70
63047;DHT22;62025;39.238;9.126;2023-08-17T06:08:35;26.40;63.20
63047;DHT22;62025;39.238;9.126;2023-08-17T06:11:01;26.50;61.90
63047;DHT22;62025;39.238;9.126;2023-08-17T06:13:27;26.60;59.30
63047;DHT22;62025;39.238;9.126;2023-08-17T06:15:53;26.60;54.70
63047;DHT22;62025;39.238;9.126;2023-08-17T06:18:21;26.70;55.10
63047;DHT22;62025;39.238;9.126;2023-08-17T06:20:47;26.90;54.50
63047;DHT22;62025;39.238;9.126;2023-08-17T06:23:16;27.00;52.50
63047;DHT22;62025;39.238;9.126;2023-08-17T06:25:42;27.00;51.30
63047;DHT22;62025;39.238;9.126;2023-08-17T06:28:08;27.00;52.30
63047;DHT22;62025;39.238;9.126;2023-08-17T06:30:34;27.10;52.00
63047;DHT22;62025;39.238;9.126;2023-08-17T06:33:00;27.40;51.80
63047;DHT22;62025;39.238;9.126;2023-08-17T06:35:26;27.50;50.00
63047;DHT22;62025;39.238;9.126;2023-08-17T06:37:51;27.70;48.80
63047;DHT22;62025;39.238;9.126;2023-08-17T06:40:21;27.80;48.50
63047;DHT22;62025;39.238;9.126;2023-08-17T06:42:47;27.90;48.90
63047;DHT22;62025;39.238;9.126;2023-08-17T06:45:13;28.10;48.20
63047;DHT22;62025;39.238;9.126;2023-08-17T06:47:44;28.10;50.00
63047;DHT22;62025;39.238;9.126;2023-08-17T06:50:11;28.00;49.90
63047;DHT22;62025;39.238;9.126;2023-08-17T06:52:37;28.10;50.10
63047;DHT22;62025;39.238;9.126;2023-08-17T06:55:04;28.30;49.80
63047;DHT22;62025;39.238;9.126;2023-08-17T06:57:30;28.40;48.80
63047;DHT22;62025;39.238;9.126;2023-08-17T06:59:56;28.40;49.40
63047;DHT22;62025;39.238;9.126;2023-08-17T07:02:22;28.40;49.70
63047;DHT22;62025;39.238;9.126;2023-08-17T07:04:48;28.50;49.60
63047;DHT22;62025;39.238;9.126;2023-08-17T07:07:14;28.60;49.50
63047;DHT22;62025;39.238;9.126;2023-08-17T07:09:40;28.40;49.10
63047;DHT22;62025;39.238;9.126;2023-08-17T07:12:06;28.50;49.30
63047;DHT22;62025;39.238;9.126;2023-08-17T07:14:33;28.50;49.90
63047;DHT22;62025;39.238;9.126;2023-08-17T07:16:59;28.60;49.70
63047;DHT22;62025;39.238;9.126;2023-08-17T07:19:25;28.70;49.50
63047;DHT22;62025;39.238;9.126;2023-08-17T07:21:51;28.70;49.50
63047;DHT22;62025;39.238;9.126;2023-08-17T07:24:19;28.90;49.60
63047;DHT22;62025;39.238;9.126;2023-08-17T07:26:45;28.90;49.50
63047;DHT22;62025;39.238;9.126;2023-08-17T07:29:11;28.90;48.90
63047;DHT22;62025;39.238;9.126;2023-08-17T07:31:38;28.90;48.90
63047;DHT22;62025;39.238;9.126;2023-08-17T07:34:07;28.90;48.60
63047;DHT22;62025;39.238;9.126;2023-08-17T07:36:33;28.90;48.60
63047;DHT22;62025;39.238;9.126;2023-08-17T07:39:00;28.80;49.60
63047;DHT22;62025;39.238;9.126;2023-08-17T07:41:26;28.70;49.80
63047;DHT22;62025;39.238;9.126;2023-08-17T07:43:52;28.80;49.10
63047;DHT22;62025;39.238;9.126;2023-08-17T07:46:18;28.90;49.20
63047;DHT22;62025;39.238;9.126;2023-08-17T07:48:44;29.00;48.90
63047;DHT22;62025;39.238;9.126;2023-08-17T07:51:10;29.00;48.90
63047;DHT22;62025;39.238;9.126;2023-08-17T07:53:36;29.50;48.20
63047;DHT22;62025;39.238;9.126;2023-08-17T07:56:02;29.30;48.90
63047;DHT22;62025;39.238;9.126;2023-08-17T07:58:28;29.40;49.10
63047;DHT22;62025;39.238;9.126;2023-08-17T08:00:54;29.40;48.20
63047;DHT22;62025;39.238;9.126;2023-08-17T08:03:20;29.40;47.60
63047;DHT22;62025;39.238;9.126;2023-08-17T08:05:46;29.40;46.30
63047;DHT22;62025;39.238;9.126;2023-08-17T08:08:12;29.50;46.00
63047;DHT22;62025;39.238;9.126;2023-08-17T08:10:40;29.50;45.80
63047;DHT22;62025;39.238;9.126;2023-08-17T08:13:06;29.70;46.00
63047;DHT22;62025;39.238;9.126;2023-08-17T08:15:33;29.70;46.10
63047;DHT22;62025;39.238;9.126;2023-08-17T08:17:59;29.90;46.60
63047;DHT22;62025;39.238;9.126;2023-08-17T08:20:25;30.00;46.30
63047;DHT22;62025;39.238;9.126;2023-08-17T08:22:51;30.20;46.10
63047;DHT22;62025;39.238;9.126;2023-08-17T08:25:17;30.40;45.70
63047;DHT22;62025;39.238;9.126;2023-08-17T08:27:43;30.40;45.90
63047;DHT22;62025;39.238;9.126;2023-08-17T08:30:09;30.40;45.70
63047;DHT22;62025;39.238;9.126;2023-08-17T08:32:35;30.40;45.70
63047;DHT22;62025;39.238;9.126;2023-08-17T08:35:02;30.70;45.50
63047;DHT22;62025;39.238;9.126;2023-08-17T08:37:28;30.70;45.40
63047;DHT22;62025;39.238;9.126;2023-08-17T08:39:55;30.70;45.80
63047;DHT22;62025;39.238;9.126;2023-08-17T08:42:22;30.70;45.90
63047;DHT22;62025;39.238;9.126;2023-08-17T08:44:50;30.80;46.30
63047;DHT22;62025;39.238;9.126;2023-08-17T08:47:17;30.90;45.30
63047;DHT22;62025;39.238;9.126;2023-08-17T08:52:39;30.80;43.60
63047;DHT22;62025;39.238;9.126;2023-08-17T08:55:19;31.00;41.90
63047;DHT22;62025;39.238;9.126;2023-08-17T08:57:49;31.20;41.10
63047;DHT22;62025;39.238;9.126;2023-08-17T09:00:15;31.40;40.00
63047;DHT22;62025;39.238;9.126;2023-08-17T09:02:42;31.20;40.30
63047;DHT22;62025;39.238;9.126;2023-08-17T09:05:10;31.30;38.00
63047;DHT22;62025;39.238;9.126;2023-08-17T09:07:37;31.40;36.90
63047;DHT22;62025;39.238;9.126;2023-08-17T09:10:05;31.70;36.50
63047;DHT22;62025;39.238;9.126;2023-08-17T09:12:31;31.90;35.50
63047;DHT22;62025;39.238;9.126;2023-08-17T09:14:57;31.80;35.10
63047;DHT22;62025;39.238;9.126;2023-08-17T09:17:24;31.60;36.40
63047;DHT22;62025;39.238;9.126;2023-08-17T09:19:51;31.40;38.90
63047;DHT22;62025;39.238;9.126;2023-08-17T09:22:25;31.60;40.10
63047;DHT22;62025;39.238;9.126;2023-08-17T09:24:51;31.70;41.10
63047;DHT22;62025;39.238;9.126;2023-08-17T09:27:17;31.70;42.10
63047;DHT22;62025;39.238;9.126;2023-08-17T09:29:44;31.60;42.20
63047;DHT22;62025;39.238;9.126;2023-08-17T09:32:14;31.60;41.20
63047;DHT22;62025;39.238;9.126;2023-08-17T09:34:44;31.60;41.10
63047;DHT22;62025;39.238;9.126;2023-08-17T09:37:12;31.90;41.10
63047;DHT22;62025;39.238;9.126;2023-08-17T09:39:39;31.90;41.00
63047;DHT22;62025;39.238;9.126;2023-08-17T09:42:05;32.00;41.00
63047;DHT22;62025;39.238;9.126;2023-08-17T09:44:33;31.70;42.30
63047;DHT22;62025;39.238;9.126;2023-08-17T09:47:01;31.90;41.60
63047;DHT22;62025;39.238;9.126;2023-08-17T09:49:31;31.90;42.00
63047;DHT22;62025;39.238;9.126;2023-08-17T09:52:01;32.00;41.40
63047;DHT22;62025;39.238;9.126;2023-08-17T09:54:31;31.80;42.40
63047;DHT22;62025;39.238;9.126;2023-08-17T09:56:58;32.00;42.40
63047;DHT22;62025;39.238;9.126;2023-08-17T09:59:24;32.00;41.00
63047;DHT22;62025;39.238;9.126;2023-08-17T10:01:51;31.90;41.00
63047;DHT22;62025;39.238;9.126;2023-08-17T10:04:21;31.80;41.60
63047;DHT22;62025;39.238;9.126;2023-08-17T10:06:52;31.80;41.10
63047;DHT22;62025;39.238;9.126;2023-08-17T10:09:25;31.80;39.40
63047;DHT22;62025;39.238;9.126;2023-08-17T10:11:57;31.40;41.30
63047;DHT22;62025;39.238;9.126;2023-08-17T10:14:29;31.80;40.70
63047;DHT22;62025;39.238;9.126;2023-08-17T10:17:02;31.70;40.40
63047;DHT22;62025;39.238;9.126;2023-08-17T10:19:45;31.50;43.30
63047;DHT22;62025;39.238;9.126;2023-08-17T10:25:01;31.20;43.30
63047;DHT22;62025;39.238;9.126;2023-08-17T10:27:28;31.10;42.90
63047;DHT22;62025;39.238;9.126;2023-08-17T10:29:54;31.20;49.00
63047;DHT22;62025;39.238;9.126;2023-08-17T10:32:22;31.20;51.70
63047;DHT22;62025;39.238;9.126;2023-08-17T10:34:52;31.10;52.30
63047;DHT22;62025;39.238;9.126;2023-08-17T10:37:19;30.90;53.60
63047;DHT22;62025;39.238;9.126;2023-08-17T10:39:47;30.60;55.20
63047;DHT22;62025;39.238;9.126;2023-08-17T10:42:14;30.40;55.70
63047;DHT22;62025;39.238;9.126;2023-08-17T10:44:44;30.40;56.20
63047;DHT22;62025;39.238;9.126;2023-08-17T10:47:20;30.20;55.70
63047;DHT22;62025;39.238;9.126;2023-08-17T10:52:29;30.20;57.10
63047;DHT22;62025;39.238;9.126;2023-08-17T10:55:00;30.00;56.10
63047;DHT22;62025;39.238;9.126;2023-08-17T10:57:31;30.00;56.70
63047;DHT22;62025;39.238;9.126;2023-08-17T11:05:53;29.90;56.60
63047;DHT22;62025;39.238;9.126;2023-08-17T11:08:33;29.80;56.60
63047;DHT22;62025;39.238;9.126;2023-08-17T11:11:11;29.80;59.10
63047;DHT22;62025;39.238;9.126;2023-08-17T11:13:39;29.70;58.10
63047;DHT22;62025;39.238;9.126;2023-08-17T11:16:08;29.90;56.80
63047;DHT22;62025;39.238;9.126;2023-08-17T11:18:34;29.70;59.60
63047;DHT22;62025;39.238;9.126;2023-08-17T11:21:06;29.70;59.40
63047;DHT22;62025;39.238;9.126;2023-08-17T11:23:33;29.80;58.50
63047;DHT22;62025;39.238;9.126;2023-08-17T11:26:00;29.80;58.70
63047;DHT22;62025;39.238;9.126;2023-08-17T11:28:26;29.70;59.50
63047;DHT22;62025;39.238;9.126;2023-08-17T11:31:00;29.70;59.40
63047;DHT22;62025;39.238;9.126;2023-08-17T11:33:27;29.70;55.80
63047;DHT22;62025;39.238;9.126;2023-08-17T11:36:01;29.60;55.70
63047;DHT22;62025;39.238;9.126;2023-08-17T11:38:35;29.60;57.70
63047;DHT22;62025;39.238;9.126;2023-08-17T11:41:02;29.80;56.60
63047;DHT22;62025;39.238;9.126;2023-08-17T11:43:30;29.80;57.70
63047;DHT22;62025;39.238;9.126;2023-08-17T11:45:57;29.80;57.40
63047;DHT22;62025;39.238;9.126;2023-08-17T11:48:24;29.60;58.40
63047;DHT22;62025;39.238;9.126;2023-08-17T11:50:52;29.80;57.10
63047;DHT22;62025;39.238;9.126;2023-08-17T11:53:18;29.90;56.50
63047;DHT22;62025;39.238;9.126;2023-08-17T11:55:45;29.90;57.80
63047;DHT22;62025;39.238;9.126;2023-08-17T11:58:10;30.20;58.10
63047;DHT22;62025;39.238;9.126;2023-08-17T12:00:40;30.10;57.00
63047;DHT22;62025;39.238;9.126;2023-08-17T12:03:07;30.10;57.50
63047;DHT22;62025;39.238;9.126;2023-08-17T12:05:33;30.00;57.70
63047;DHT22;62025;39.238;9.126;2023-08-17T12:08:00;30.20;56.80
63047;DHT22;62025;39.238;9.126;2023-08-17T12:10:30;30.10;56.30
63047;DHT22;62025;39.238;9.126;2023-08-17T12:12:57;30.10;57.20
63047;DHT22;62025;39.238;9.126;2023-08-17T12:15:33;29.90;57.10
63047;DHT22;62025;39.238;9.126;2023-08-17T12:18:02;29.90;57.30
63047;DHT22;62025;39.238;9.126;2023-08-17T12:20:30;30.20;56.90
63047;DHT22;62025;39.238;9.126;2023-08-17T12:22:58;30.10;55.20
63047;DHT22;62025;39.238;9.126;2023-08-17T12:25:25;29.90;55.40
63047;DHT22;62025;39.238;9.126;2023-08-17T12:27:52;29.90;55.50
63047;DHT22;62025;39.238;9.126;2023-08-17T12:30:31;29.80;57.50
63047;DHT22;62025;39.238;9.126;2023-08-17T12:33:01;29.90;58.00
63047;DHT22;62025;39.238;9.126;2023-08-17T12:35:29;30.00;55.30
63047;DHT22;62025;39.238;9.126;2023-08-17T12:37:56;30.00;55.60
63047;DHT22;62025;39.238;9.126;2023-08-17T12:40:24;30.10;55.10
63047;DHT22;62025;39.238;9.126;2023-08-17T12:42:50;30.20;55.80
63047;DHT22;62025;39.238;9.126;2023-08-17T12:45:16;30.10;54.30
63047;DHT22;62025;39.238;9.126;2023-08-17T12:47:42;30.10;55.60
63047;DHT22;62025;39.238;9.126;2023-08-17T12:50:09;30.10;55.20
63047;DHT22;62025;39.238;9.126;2023-08-17T12:52:35;30.20;55.00
63047;DHT22;62025;39.238;9.126;2023-08-17T12:55:01;29.90;55.00
63047;DHT22;62025;39.238;9.126;2023-08-17T12:57:27;29.90;55.80
63047;DHT22;62025;39.238;9.126;2023-08-17T12:59:53;29.90;55.10
63047;DHT22;62025;39.238;9.126;2023-08-17T13:02:20;30.00;54.90
63047;DHT22;62025;39.238;9.126;2023-08-17T13:04:47;30.00;54.70
63047;DHT22;62025;39.238;9.126;2023-08-17T13:07:13;29.90;55.40
63047;DHT22;62025;39.238;9.126;2023-08-17T13:09:39;29.90;55.20
63047;DHT22;62025;39.238;9.126;2023-08-17T13:12:05;29.90;54.70
63047;DHT22;62025;39.238;9.126;2023-08-17T13:14:31;30.00;54.50
63047;DHT22;62025;39.238;9.126;2023-08-17T13:16:57;29.90;55.90
63047;DHT22;62025;39.238;9.126;2023-08-17T13:19:23;29.90;54.60
63047;DHT22;62025;39.238;9.126;2023-08-17T13:21:49;29.90;53.90
63047;DHT22;62025;39.238;9.126;2023-08-17T13:24:15;30.00;53.80
63047;DHT22;62025;39.238;9.126;2023-08-17T13:26:41;30.10;53.90
63047;DHT22;62025;39.238;9.126;2023-08-17T13:29:07;30.00;54.20
63047;DHT22;62025;39.238;9.126;2023-08-17T13:31:34;30.10;53.70
63047;DHT22;62025;39.238;9.126;2023-08-17T13:34:00;30.30;50.70
63047;DHT22;62025;39.238;9.126;2023-08-17T13:36:26;30.50;49.40
63047;DHT22;62025;39.238;9.126;2023-08-17T13:38:53;30.50;45.50
63047;DHT22;62025;39.238;9.126;2023-08-17T13:41:19;30.40;42.30
63047;DHT22;62025;39.238;9.126;2023-08-17T13:43:45;30.50;47.10
63047;DHT22;62025;39.238;9.126;2023-08-17T13:46:12;30.80;47.20
63047;DHT22;62025;39.238;9.126;2023-08-17T13:48:38;30.70;44.60
63047;DHT22;62025;39.238;9.126;2023-08-17T13:51:04;30.60;47.70
63047;DHT22;62025;39.238;9.126;2023-08-17T13:53:30;30.50;41.60
63047;DHT22;62025;39.238;9.126;2023-08-17T13:55:56;30.70;41.90
63047;DHT22;62025;39.238;9.126;2023-08-17T13:58:23;30.80;43.50
63047;DHT22;62025;39.238;9.126;2023-08-17T14:00:49;30.90;44.80
63047;DHT22;62025;39.238;9.126;2023-08-17T14:03:15;30.80;43.80
63047;DHT22;62025;39.238;9.126;2023-08-17T14:05:41;30.70;48.70
63047;DHT22;62025;39.238;9.126;2023-08-17T14:08:07;30.70;44.50
63047;DHT22;62025;39.238;9.126;2023-08-17T14:10:33;30.60;48.00
63047;DHT22;62025;39.238;9.126;2023-08-17T14:13:01;30.80;43.60
63047;DHT22;62025;39.238;9.126;2023-08-17T14:15:27;30.70;42.80
63047;DHT22;62025;39.238;9.126;2023-08-17T14:17:54;30.70;41.90
63047;DHT22;62025;39.238;9.126;2023-08-17T14:20:20;30.70;40.00
63047;DHT22;62025;39.238;9.126;2023-08-17T14:22:46;30.60;42.50
63047;DHT22;62025;39.238;9.126;2023-08-17T14:25:12;30.70;41.40
63047;DHT22;62025;39.238;9.126;2023-08-17T14:27:38;30.60;42.40
63047;DHT22;62025;39.238;9.126;2023-08-17T14:30:04;30.60;42.30
63047;DHT22;62025;39.238;9.126;2023-08-17T14:32:31;30.60;41.70
63047;DHT22;62025;39.238;9.126;2023-08-17T14:34:57;30.60;41.20
63047;DHT22;62025;39.238;9.126;2023-08-17T14:37:23;30.50;41.40
63047;DHT22;62025;39.238;9.126;2023-08-17T14:39:48;30.60;42.50
63047;DHT22;62025;39.238;9.126;2023-08-17T14:42:14;30.40;43.50
63047;DHT22;62025;39.238;9.126;2023-08-17T14:44:40;30.60;43.30
63047;DHT22;62025;39.238;9.126;2023-08-17T14:47:06;30.50;42.30
63047;DHT22;62025;39.238;9.126;2023-08-17T14:49:32;30.50;41.40
63047;DHT22;62025;39.238;9.126;2023-08-17T14:51:58;30.50;42.00
63047;DHT22;62025;39.238;9.126;2023-08-17T14:54:24;30.50;41.00
63047;DHT22;62025;39.238;9.126;2023-08-17T14:56:51;30.60;43.50
63047;DHT22;62025;39.238;9.126;2023-08-17T14:59:17;30.40;41.80
63047;DHT22;62025;39.238;9.126;2023-08-17T15:01:44;30.60;46.70
63047;DHT22;62025;39.238;9.126;2023-08-17T15:04:10;30.50;44.80
63047;DHT22;62025;39.238;9.126;2023-08-17T15:06:36;30.40;45.70
63047;DHT22;62025;39.238;9.126;2023-08-17T15:09:02;30.50;46.50
63047;DHT22;62025;39.238;9.126;2023-08-17T15:11:29;30.60;47.00
63047;DHT22;62025;39.238;9.126;2023-08-17T15:13:55;30.40;52.90
63047;DHT22;62025;39.238;9.126;2023-08-17T15:16:21;30.30;54.00
63047;DHT22;62025;39.238;9.126;2023-08-17T15:18:51;30.30;54.00
63047;DHT22;62025;39.238;9.126;2023-08-17T15:21:17;30.40;53.90
63047;DHT22;62025;39.238;9.126;2023-08-17T15:23:43;30.20;53.70
63047;DHT22;62025;39.238;9.126;2023-08-17T15:26:09;30.00;54.00
63047;DHT22;62025;39.238;9.126;2023-08-17T15:28:36;29.90;54.40
63047;DHT22;62025;39.238;9.126;2023-08-17T15:31:03;30.00;56.00
63047;DHT22;62025;39.238;9.126;2023-08-17T15:33:31;29.90;57.30
63047;DHT22;62025;39.238;9.126;2023-08-17T15:35:57;29.90;56.20
63047;DHT22;62025;39.238;9.126;2023-08-17T15:38:24;29.90;56.10
63047;DHT22;62025;39.238;9.126;2023-08-17T15:40:50;29.90;55.90
63047;DHT22;62025;39.238;9.126;2023-08-17T15:43:17;30.00;56.30
63047;DHT22;62025;39.238;9.126;2023-08-17T15:45:43;29.90;56.10
63047;DHT22;62025;39.238;9.126;2023-08-17T15:48:09;29.80;55.50